Liberty — WDD2088 — position and weather

sailwx.info

Track history (hours):
 
Tides and Currents Weather Stations Pressure Air Temp Water Temp Dewpoint Dewpoint Depression Visibility Wind Speed Wind Dir Waves Ship Positions

Liberty

Owner: HORIZON 82 LEASING LLC, Provo, UT. More information available from US FCC via Universal Licensing System.

Last reported at 2015-Jul-04 13:33 UTC. Time now 2015-Jul-04 13:40 UTC.
Position N 48°37' W 123°00'.

Length 25 m; draft 2.2 m.

MMSI: 367110770.

Date/timePositionNaut miles runAvg speedWind from/ knotsBaromVisibWave heightAir tempDewpointWater temp
2015-Jul-04 13:33N 48°37' W 123°00'0 0.0
2015-Jul-04 12:33N 48°37' W 123°00'0 0.0
2015-Jul-04 11:30N 48°37' W 123°00'0 0.0
2015-Jul-04 10:21N 48°37' W 123°00'0 0.1
2015-Jul-04 09:33N 48°37' W 123°00'0 0.0
2015-Jul-04 08:30N 48°37' W 123°00'0 0.0
2015-Jul-04 07:33N 48°37' W 123°00'0 0.0
2015-Jul-04 06:33N 48°37' W 123°00'0 0.0
2015-Jul-04 05:33N 48°37' W 123°00'0 0.0
2015-Jul-03 20:28N 48°37' W 123°00'0 0.2
2015-Jul-03 19:30N 48°37' W 123°00'0 0.0
2015-Jul-03 18:33N 48°37' W 123°00'0 0.0
2015-Jul-03 17:21N 48°37' W 123°00'0 0.1
2015-Jul-03 16:30N 48°37' W 123°00'0 0.0
2015-Jul-03 15:27N 48°37' W 123°00'0 0.0
2015-Jul-03 14:33N 48°37' W 123°00'0 0.0
2015-Jul-03 12:30N 48°37' W 123°00'0 0.0
2015-Jul-03 11:30N 48°37' W 123°00'0 0.0
2015-Jul-03 10:24N 48°37' W 123°00'0 0.0
2015-Jul-03 09:33N 48°37' W 123°00'0 0.0
2015-Jul-03 08:30N 48°37' W 123°00'0 0.0
2015-Jul-03 07:33N 48°37' W 123°00'0 0.0
2015-Jul-03 06:27N 48°37' W 123°00'0 0.0
2015-Jul-03 05:33N 48°37' W 123°00'0 0.0
2015-Jul-03 04:12N 48°37' W 123°00'0 0.0
2015-Jul-03 03:21N 48°37' W 123°00'0 0.0
2015-Jul-03 02:27N 48°37' W 123°00'0 0.0
2015-Jul-03 01:33N 48°37' W 123°00'0 0.0
2015-Jul-03 00:30N 48°37' W 123°00'0 0.0
2015-Jul-02 23:24N 48°37' W 123°00'0 0.1
2015-Jul-02 22:33N 48°37' W 123°00'1 0.9
2015-Jul-02 21:33N 48°36' W 123°01'8 8.3
2015-Jul-02 20:33N 48°44' W 122°55'2 0.3
2015-Jul-02 12:13N 48°46' W 122°54'0 0.0
2015-Jul-01 12:25N 48°46' W 122°54'0 0.0
2015-Jul-01 01:26N 48°46' W 122°54'1 2.5
2015-Jul-01 00:58N 48°45' W 122°53'4 8.8
2015-Jul-01 00:33N 48°43' W 122°49'1010.0
2015-Jun-30 23:33N 48°35' W 122°39'10 9.5
2015-Jun-30 22:33N 48°27' W 122°31'0 0.0
2015-Jun-30 09:16N 48°27' W 122°31'0 0.0
2015-Jun-29 01:16N 48°27' W 122°31'0 0.0
2015-Jun-28 06:04N 48°27' W 122°31'0 0.0
2015-Jun-28 05:28N 48°27' W 122°31'0 0.0
2015-Jun-27 13:22N 48°27' W 122°31'  
Track history (hours):
 
Tides and Currents Weather Stations Pressure Air Temp Water Temp Dewpoint Dewpoint Depression Visibility Wind Speed Wind Dir Waves Ship Positions

Liberty

Owner: HORIZON 82 LEASING LLC, Provo, UT. More information available from US FCC via Universal Licensing System.

Last reported at 2015-Jul-04 13:33 UTC. Time now 2015-Jul-04 13:40 UTC.
Position N 48°37' W 123°00'.

Length 25 m; draft 2.2 m.

MMSI: 367110770.

Date/timePositionNaut miles runAvg speedWind from/ knotsBaromVisibWave heightAir tempDewpointWater temp
2015-Jul-04 13:33N 48°37' W 123°00'0 0.0
2015-Jul-04 12:33N 48°37' W 123°00'0 0.0
2015-Jul-04 11:30N 48°37' W 123°00'0 0.0
2015-Jul-04 10:21N 48°37' W 123°00'0 0.1
2015-Jul-04 09:33N 48°37' W 123°00'0 0.0
2015-Jul-04 08:30N 48°37' W 123°00'0 0.0
2015-Jul-04 07:33N 48°37' W 123°00'0 0.0
2015-Jul-04 06:33N 48°37' W 123°00'0 0.0
2015-Jul-04 05:33N 48°37' W 123°00'0 0.0
2015-Jul-03 20:28N 48°37' W 123°00'0 0.2
2015-Jul-03 19:30N 48°37' W 123°00'0 0.0
2015-Jul-03 18:33N 48°37' W 123°00'0 0.0
2015-Jul-03 17:21N 48°37' W 123°00'0 0.1
2015-Jul-03 16:30N 48°37' W 123°00'0 0.0
2015-Jul-03 15:27N 48°37' W 123°00'0 0.0
2015-Jul-03 14:33N 48°37' W 123°00'0 0.0
2015-Jul-03 12:30N 48°37' W 123°00'0 0.0
2015-Jul-03 11:30N 48°37' W 123°00'0 0.0
2015-Jul-03 10:24N 48°37' W 123°00'0 0.0
2015-Jul-03 09:33N 48°37' W 123°00'0 0.0
2015-Jul-03 08:30N 48°37' W 123°00'0 0.0
2015-Jul-03 07:33N 48°37' W 123°00'0 0.0
2015-Jul-03 06:27N 48°37' W 123°00'0 0.0
2015-Jul-03 05:33N 48°37' W 123°00'0 0.0
2015-Jul-03 04:12N 48°37' W 123°00'0 0.0
2015-Jul-03 03:21N 48°37' W 123°00'0 0.0
2015-Jul-03 02:27N 48°37' W 123°00'0 0.0
2015-Jul-03 01:33N 48°37' W 123°00'0 0.0
2015-Jul-03 00:30N 48°37' W 123°00'0 0.0
2015-Jul-02 23:24N 48°37' W 123°00'0 0.1
2015-Jul-02 22:33N 48°37' W 123°00'1 0.9
2015-Jul-02 21:33N 48°36' W 123°01'8 8.3
2015-Jul-02 20:33N 48°44' W 122°55'2 0.3
2015-Jul-02 12:13N 48°46' W 122°54'0 0.0
2015-Jul-01 12:25N 48°46' W 122°54'0 0.0
2015-Jul-01 01:26N 48°46' W 122°54'1 2.5
2015-Jul-01 00:58N 48°45' W 122°53'4 8.8
2015-Jul-01 00:33N 48°43' W 122°49'1010.0
2015-Jun-30 23:33N 48°35' W 122°39'10 9.5
2015-Jun-30 22:33N 48°27' W 122°31'0 0.0
2015-Jun-30 09:16N 48°27' W 122°31'0 0.0
2015-Jun-29 01:16N 48°27' W 122°31'0 0.0
2015-Jun-28 06:04N 48°27' W 122°31'0 0.0
2015-Jun-28 05:28N 48°27' W 122°31'0 0.0
2015-Jun-27 13:22N 48°27' W 122°31'  

Dump ship's entire track history